sensor_id;sensor_type;location;lat;lon;timestamp;pressure;altitude;pressure_sealevel;temperature;humidity
52927;BME280;40783;49.710;8.842;2023-04-08T00:00:25;99410.91;;;6.35;100.00
52927;BME280;40783;49.710;8.842;2023-04-08T00:02:50;99418.72;;;6.36;100.00
52927;BME280;40783;49.710;8.842;2023-04-08T00:05:16;99409.78;;;6.37;100.00
52927;BME280;40783;49.710;8.842;2023-04-08T00:07:43;99413.16;;;6.39;100.00
52927;BME280;40783;49.710;8.842;2023-04-08T00:10:08;99408.31;;;6.45;100.00
52927;BME280;40783;49.710;8.842;2023-04-08T00:12:37;99412.66;;;6.46;100.00
52927;BME280;40783;49.710;8.842;2023-04-08T00:15:05;99412.41;;;6.49;100.00
52927;BME280;40783;49.710;8.842;2023-04-08T00:17:30;99409.50;;;6.52;100.00
52927;BME280;40783;49.710;8.842;2023-04-08T00:19:56;99421.13;;;6.51;100.00
52927;BME280;40783;49.710;8.842;2023-04-08T00:22:21;99422.94;;;6.50;100.00
52927;BME280;40783;49.710;8.842;2023-04-08T00:24:48;99417.72;;;6.49;100.00
52927;BME280;40783;49.710;8.842;2023-04-08T00:27:16;99428.25;;;6.50;100.00
52927;BME280;40783;49.710;8.842;2023-04-08T00:29:42;99421.13;;;6.51;100.00
52927;BME280;40783;49.710;8.842;2023-04-08T00:32:09;99413.84;;;6.53;100.00
52927;BME280;40783;49.710;8.842;2023-04-08T00:34:37;99415.78;;;6.51;100.00
52927;BME280;40783;49.710;8.842;2023-04-08T00:37:02;99418.34;;;6.52;100.00
52927;BME280;40783;49.710;8.842;2023-04-08T00:39:28;99415.28;;;6.57;100.00
52927;BME280;40783;49.710;8.842;2023-04-08T00:41:53;99420.63;;;6.57;100.00
52927;BME280;40783;49.710;8.842;2023-04-08T00:44:21;99411.91;;;6.55;100.00
52927;BME280;40783;49.710;8.842;2023-04-08T00:46:47;99421.81;;;6.53;100.00
52927;BME280;40783;49.710;8.842;2023-04-08T00:49:12;99420.88;;;6.54;100.00
52927;BME280;40783;49.710;8.842;2023-04-08T00:51:38;99422.56;;;6.55;100.00
52927;BME280;40783;49.710;8.842;2023-04-08T00:54:05;99418.91;;;6.56;100.00
52927;BME280;40783;49.710;8.842;2023-04-08T00:56:31;99421.72;;;6.55;100.00
52927;BME280;40783;49.710;8.842;2023-04-08T00:58:59;99420.88;;;6.54;100.00
52927;BME280;40783;49.710;8.842;2023-04-08T01:01:46;99421.22;;;6.61;100.00
52927;BME280;40783;49.710;8.842;2023-04-08T01:04:34;99430.75;;;6.63;100.00
52927;BME280;40783;49.710;8.842;2023-04-08T01:07:22;99423.75;;;6.62;100.00
52927;BME280;40783;49.710;8.842;2023-04-08T01:09:55;99431.94;;;6.71;100.00
52927;BME280;40783;49.710;8.842;2023-04-08T01:12:25;99425.66;;;6.72;100.00
52927;BME280;40783;49.710;8.842;2023-04-08T01:15:04;99426.63;;;6.71;100.00
52927;BME280;40783;49.710;8.842;2023-04-08T01:17:31;99427.59;;;6.70;100.00
52927;BME280;40783;49.710;8.842;2023-04-08T01:19:59;99417.91;;;6.68;100.00
52927;BME280;40783;49.710;8.842;2023-04-08T01:25:17;99421.28;;;6.71;100.00
52927;BME280;40783;49.710;8.842;2023-04-08T01:27:47;99417.66;;;6.72;100.00
52927;BME280;40783;49.710;8.842;2023-04-08T01:30:17;99421.63;;;6.77;100.00
52927;BME280;40783;49.710;8.842;2023-04-08T01:32:43;99423.56;;;6.75;100.00
52927;BME280;40783;49.710;8.842;2023-04-08T01:35:10;99424.16;;;6.79;100.00
52927;BME280;40783;49.710;8.842;2023-04-08T01:37:37;99414.03;;;6.73;100.00
52927;BME280;40783;49.710;8.842;2023-04-08T01:40:07;99417.66;;;6.72;100.00
52927;BME280;40783;49.710;8.842;2023-04-08T01:42:34;99415.47;;;6.77;100.00
52927;BME280;40783;49.710;8.842;2023-04-08T01:45:02;99420.78;;;6.77;100.00
52927;BME280;40783;49.710;8.842;2023-04-08T01:47:30;99413.31;;;6.71;100.00
52927;BME280;40783;49.710;8.842;2023-04-08T01:49:57;99417.91;;;6.68;100.00
52927;BME280;40783;49.710;8.842;2023-04-08T01:52:24;99418.75;;;6.69;100.00
52927;BME280;40783;49.710;8.842;2023-04-08T01:54:53;99421.28;;;6.71;100.00
52927;BME280;40783;49.710;8.842;2023-04-08T01:57:23;99418.50;;;6.72;100.00
52927;BME280;40783;49.710;8.842;2023-04-08T01:59:51;99420.91;;;6.75;100.00
52927;BME280;40783;49.710;8.842;2023-04-08T02:02:19;99424.28;;;6.77;100.00
52927;BME280;40783;49.710;8.842;2023-04-08T02:04:47;99426.22;;;6.75;100.00
52927;BME280;40783;49.710;8.842;2023-04-08T02:07:15;99416.91;;;6.81;100.00
52927;BME280;40783;49.710;8.842;2023-04-08T02:09:41;99424.28;;;6.77;100.00
52927;BME280;40783;49.710;8.842;2023-04-08T02:12:07;99425.25;;;6.76;100.00
52927;BME280;40783;49.710;8.842;2023-04-08T02:14:32;99424.66;;;6.73;100.00
52927;BME280;40783;49.710;8.842;2023-04-08T02:17:09;99430.31;;;6.79;100.00
52927;BME280;40783;49.710;8.842;2023-04-08T02:19:48;99418.59;;;6.82;100.00
52927;BME280;40783;49.710;8.842;2023-04-08T02:22:30;99424.16;;;6.79;100.00
52927;BME280;40783;49.710;8.842;2023-04-08T02:24:58;99424.41;;;6.76;100.00
52927;BME280;40783;49.710;8.842;2023-04-08T02:27:25;99426.22;;;6.75;100.00
52927;BME280;40783;49.710;8.842;2023-04-08T02:29:54;99427.91;;;6.76;100.00
52927;BME280;40783;49.710;8.842;2023-04-08T02:32:24;99425.44;;;6.63;100.00
52927;BME280;40783;49.710;8.842;2023-04-08T02:34:51;99430.00;;;6.73;100.00
52927;BME280;40783;49.710;8.842;2023-04-08T02:37:18;99429.38;;;6.69;100.00
52927;BME280;40783;49.710;8.842;2023-04-08T02:39:44;99429.47;;;6.79;100.00
52927;BME280;40783;49.710;8.842;2023-04-08T02:42:09;99420.53;;;6.80;100.00
52927;BME280;40783;49.710;8.842;2023-04-08T02:44:37;99427.06;;;6.76;100.00
52927;BME280;40783;49.710;8.842;2023-04-08T02:47:05;99432.84;;;6.81;100.00
52927;BME280;40783;49.710;8.842;2023-04-08T02:49:30;99423.91;;;6.82;100.00
52927;BME280;40783;49.710;8.842;2023-04-08T02:51:55;99423.66;;;6.85;100.00
52927;BME280;40783;49.710;8.842;2023-04-08T02:54:20;99423.66;;;6.85;100.00
52927;BME280;40783;49.710;8.842;2023-04-08T02:56:46;99439.38;;;6.88;100.00
52927;BME280;40783;49.710;8.842;2023-04-08T02:59:13;99438.69;;;6.75;100.00
52927;BME280;40783;49.710;8.842;2023-04-08T03:01:39;99437.97;;;6.73;100.00
52927;BME280;40783;49.710;8.842;2023-04-08T03:04:04;99439.19;;;6.68;100.00
52927;BME280;40783;49.710;8.842;2023-04-08T03:06:29;99438.94;;;6.72;100.00
52927;BME280;40783;49.710;8.842;2023-04-08T03:08:58;99439.25;;;6.78;100.00
52927;BME280;40783;49.710;8.842;2023-04-08T03:11:26;99444.97;;;6.74;100.00
52927;BME280;40783;49.710;8.842;2023-04-08T03:13:51;99435.31;;;6.73;100.00
52927;BME280;40783;49.710;8.842;2023-04-08T03:16:16;99444.34;;;6.70;100.00
52927;BME280;40783;49.710;8.842;2023-04-08T03:18:44;99440.00;;;6.69;100.00
52927;BME280;40783;49.710;8.842;2023-04-08T03:21:09;99439.19;;;6.68;100.00
52927;BME280;40783;49.710;8.842;2023-04-08T03:23:35;99451.75;;;6.66;100.00
52927;BME280;40783;49.710;8.842;2023-04-08T03:26:02;99444.00;;;6.75;100.00
52927;BME280;40783;49.710;8.842;2023-04-08T03:28:28;99441.44;;;6.73;100.00
52927;BME280;40783;49.710;8.842;2023-04-08T03:30:55;99451.00;;;6.76;100.00
52927;BME280;40783;49.710;8.842;2023-04-08T03:33:23;99452.44;;;6.80;100.00
52927;BME280;40783;49.710;8.842;2023-04-08T03:35:50;99459.00;;;6.64;100.00
52927;BME280;40783;49.710;8.842;2023-04-08T03:38:15;99461.63;;;6.76;100.00
52927;BME280;40783;49.710;8.842;2023-04-08T03:40:41;99455.84;;;6.71;100.00
52927;BME280;40783;49.710;8.842;2023-04-08T03:43:06;99453.75;;;6.74;100.00
52927;BME280;40783;49.710;8.842;2023-04-08T03:45:37;99451.81;;;6.76;100.00
52927;BME280;40783;49.710;8.842;2023-04-08T03:48:05;99465.03;;;6.66;100.00
52927;BME280;40783;49.710;8.842;2023-04-08T03:50:30;99456.56;;;6.73;100.00
52927;BME280;40783;49.710;8.842;2023-04-08T03:52:56;99456.31;;;6.76;100.00
52927;BME280;40783;49.710;8.842;2023-04-08T03:55:21;99458.28;;;6.62;100.00
52927;BME280;40783;49.710;8.842;2023-04-08T03:57:46;99466.41;;;6.61;100.00
52927;BME280;40783;49.710;8.842;2023-04-08T04:00:12;99462.78;;;6.62;100.00
52927;BME280;40783;49.710;8.842;2023-04-08T04:02:40;99453.94;;;6.61;100.00
52927;BME280;40783;49.710;8.842;2023-04-08T04:05:08;99454.94;;;6.49;100.00
52927;BME280;40783;49.710;8.842;2023-04-08T04:07:33;99458.56;;;6.48;100.00
52927;BME280;40783;49.710;8.842;2023-04-08T04:10:01;99462.66;;;6.41;100.00
52927;BME280;40783;49.710;8.842;2023-04-08T04:12:29;99462.66;;;6.41;100.00
52927;BME280;40783;49.710;8.842;2023-04-08T04:14:54;99462.44;;;6.44;100.00
52927;BME280;40783;49.710;8.842;2023-04-08T04:17:19;99472.34;;;6.42;100.00
52927;BME280;40783;49.710;8.842;2023-04-08T04:19:45;99468.63;;;6.33;100.00
52927;BME280;40783;49.710;8.842;2023-04-08T04:22:14;99466.44;;;6.27;100.00
52927;BME280;40783;49.710;8.842;2023-04-08T04:24:42;99467.31;;;6.27;100.00
52927;BME280;40783;49.710;8.842;2023-04-08T04:27:10;99477.69;;;6.30;100.00
52927;BME280;40783;49.710;8.842;2023-04-08T04:29:35;99473.44;;;6.28;100.00
52927;BME280;40783;49.710;8.842;2023-04-08T04:32:01;99482.63;;;6.23;100.00
52927;BME280;40783;49.710;8.842;2023-04-08T04:34:26;99487.09;;;6.23;100.00
52927;BME280;40783;49.710;8.842;2023-04-08T04:36:53;99479.38;;;6.08;100.00
52927;BME280;40783;49.710;8.842;2023-04-08T04:39:21;99492.41;;;6.12;100.00
52927;BME280;40783;49.710;8.842;2023-04-08T04:41:49;99486.63;;;6.06;100.00
52927;BME280;40783;49.710;8.842;2023-04-08T04:44:16;99487.09;;;6.00;100.00
52927;BME280;40783;49.710;8.842;2023-04-08T04:46:42;99487.53;;;5.94;100.00
52927;BME280;40783;49.710;8.842;2023-04-08T04:49:07;99489.97;;;5.97;100.00
52927;BME280;40783;49.710;8.842;2023-04-08T04:51:32;99491.41;;;5.90;100.00
52927;BME280;40783;49.710;8.842;2023-04-08T04:54:00;99488.25;;;5.85;100.00
52927;BME280;40783;49.710;8.842;2023-04-08T04:56:27;99489.72;;;5.77;100.00
52927;BME280;40783;49.710;8.842;2023-04-08T04:58:53;99494.53;;;5.61;100.00
52927;BME280;40783;49.710;8.842;2023-04-08T05:01:23;99490.78;;;5.63;100.00
52927;BME280;40783;49.710;8.842;2023-04-08T05:03:48;99501.78;;;5.70;100.00
52927;BME280;40783;49.710;8.842;2023-04-08T05:06:13;99499.34;;;5.67;100.00
52927;BME280;40783;49.710;8.842;2023-04-08T05:08:39;99495.34;;;5.50;100.00
52927;BME280;40783;49.710;8.842;2023-04-08T05:11:08;99499.34;;;5.56;100.00
52927;BME280;40783;49.710;8.842;2023-04-08T05:13:36;99498.63;;;5.65;100.00
52927;BME280;40783;49.710;8.842;2023-04-08T05:16:01;99490.22;;;5.83;100.00
52927;BME280;40783;49.710;8.842;2023-04-08T05:18:28;99503.94;;;5.88;100.00
52927;BME280;40783;49.710;8.842;2023-04-08T05:20:54;99511.44;;;5.83;100.00
52927;BME280;40783;49.710;8.842;2023-04-08T05:23:21;99518.69;;;5.81;100.00
52927;BME280;40783;49.710;8.842;2023-04-08T05:25:49;99516.00;;;5.69;100.00
52927;BME280;40783;49.710;8.842;2023-04-08T05:28:14;99515.03;;;5.59;100.00
52927;BME280;40783;49.710;8.842;2023-04-08T05:30:44;99511.75;;;5.67;100.00
52927;BME280;40783;49.710;8.842;2023-04-08T05:33:12;99520.91;;;5.62;100.00
52927;BME280;40783;49.710;8.842;2023-04-08T05:35:40;99514.25;;;5.45;100.00
52927;BME280;40783;49.710;8.842;2023-04-08T05:38:10;99514.72;;;5.39;100.00
52927;BME280;40783;49.710;8.842;2023-04-08T05:40:37;99513.97;;;5.26;100.00
52927;BME280;40783;49.710;8.842;2023-04-08T05:43:03;99514.13;;;5.35;100.00
52927;BME280;40783;49.710;8.842;2023-04-08T05:45:28;99511.09;;;5.40;100.00
52927;BME280;40783;49.710;8.842;2023-04-08T05:47:56;99517.63;;;5.47;100.00
52927;BME280;40783;49.710;8.842;2023-04-08T05:50:21;99518.75;;;5.56;100.00
52927;BME280;40783;49.710;8.842;2023-04-08T05:52:47;99522.47;;;5.54;100.00
52927;BME280;40783;49.710;8.842;2023-04-08T05:55:14;99529.94;;;5.48;100.00
52927;BME280;40783;49.710;8.842;2023-04-08T05:57:40;99538.84;;;5.47;100.00
52927;BME280;40783;49.710;8.842;2023-04-08T06:00:07;99530.72;;;5.62;100.00
52927;BME280;40783;49.710;8.842;2023-04-08T06:02:34;99541.66;;;5.57;100.00
52927;BME280;40783;49.710;8.842;2023-04-08T06:04:59;99545.63;;;5.52;100.00
52927;BME280;40783;49.710;8.842;2023-04-08T06:07:27;99549.38;;;5.49;100.00
52927;BME280;40783;49.710;8.842;2023-04-08T06:09:53;99551.94;;;5.62;100.00
52927;BME280;40783;49.710;8.842;2023-04-08T06:12:18;99550.25;;;5.61;100.00
52927;BME280;40783;49.710;8.842;2023-04-08T06:14:43;99556.53;;;5.71;100.00
52927;BME280;40783;49.710;8.842;2023-04-08T06:17:11;99558.22;;;5.72;100.00
52927;BME280;40783;49.710;8.842;2023-04-08T06:19:39;99558.94;;;5.63;100.00
52927;BME280;40783;49.710;8.842;2023-04-08T06:22:04;99566.03;;;5.62;100.00
52927;BME280;40783;49.710;8.842;2023-04-08T06:24:30;99565.94;;;5.64;100.00
52927;BME280;40783;49.710;8.842;2023-04-08T06:26:55;99559.94;;;5.73;100.00
52927;BME280;40783;49.710;8.842;2023-04-08T06:29:21;99563.16;;;5.65;100.00
52927;BME280;40783;49.710;8.842;2023-04-08T06:31:47;99568.59;;;5.64;100.00
52927;BME280;40783;49.710;8.842;2023-04-08T06:34:15;99568.91;;;5.59;100.00
52927;BME280;40783;49.710;8.842;2023-04-08T06:36:40;99571.69;;;5.58;100.00
52927;BME280;40783;49.710;8.842;2023-04-08T06:39:06;99574.13;;;5.61;100.00
52927;BME280;40783;49.710;8.842;2023-04-08T06:41:31;99570.13;;;5.67;100.00
52927;BME280;40783;49.710;8.842;2023-04-08T06:43:56;99584.13;;;5.33;100.00
52927;BME280;40783;49.710;8.842;2023-04-08T06:46:22;99573.25;;;5.49;100.00
52927;BME280;40783;49.710;8.842;2023-04-08T06:48:49;99574.06;;;5.49;100.00
52927;BME280;40783;49.710;8.842;2023-04-08T06:51:14;99573.25;;;5.60;100.00
52927;BME280;40783;49.710;8.842;2023-04-08T06:53:40;99575.97;;;5.83;100.00
52927;BME280;40783;49.710;8.842;2023-04-08T06:56:07;99576.34;;;5.90;100.00
52927;BME280;40783;49.710;8.842;2023-04-08T06:58:35;99574.59;;;6.02;100.00
52927;BME280;40783;49.710;8.842;2023-04-08T07:01:08;99576.94;;;6.29;100.00
52927;BME280;40783;49.710;8.842;2023-04-08T07:03:33;99578.59;;;6.53;100.00
52927;BME280;40783;49.710;8.842;2023-04-08T07:06:02;99581.25;;;6.64;100.00
52927;BME280;40783;49.710;8.842;2023-04-08T07:08:28;99585.38;;;6.57;100.00
52927;BME280;40783;49.710;8.842;2023-04-08T07:10:55;99584.72;;;6.76;100.00
52927;BME280;40783;49.710;8.842;2023-04-08T07:13:21;99580.03;;;6.80;100.00
52927;BME280;40783;49.710;8.842;2023-04-08T07:15:47;99581.09;;;6.89;100.00
52927;BME280;40783;49.710;8.842;2023-04-08T07:18:12;99586.78;;;6.84;100.00
52927;BME280;40783;49.710;8.842;2023-04-08T07:20:38;99590.41;;;6.83;100.00
52927;BME280;40783;49.710;8.842;2023-04-08T07:23:03;99579.78;;;6.83;100.00
52927;BME280;40783;49.710;8.842;2023-04-08T07:25:32;99586.31;;;6.79;100.00
52927;BME280;40783;49.710;8.842;2023-04-08T07:27:58;99579.78;;;6.72;100.00
52927;BME280;40783;49.710;8.842;2023-04-08T07:30:23;99583.16;;;6.85;100.00
52927;BME280;40783;49.710;8.842;2023-04-08T07:32:51;99591.97;;;6.97;100.00
52927;BME280;40783;49.710;8.842;2023-04-08T07:35:17;99594.97;;;6.92;100.00
52927;BME280;40783;49.710;8.842;2023-04-08T07:37:48;99596.16;;;7.00;100.00
52927;BME280;40783;49.710;8.842;2023-04-08T07:40:13;99592.53;;;7.12;100.00
52927;BME280;40783;49.710;8.842;2023-04-08T07:42:39;99597.56;;;7.26;100.00
52927;BME280;40783;49.710;8.842;2023-04-08T07:45:05;99608.78;;;7.30;100.00
52927;BME280;40783;49.710;8.842;2023-04-08T07:47:35;99603.13;;;7.23;100.00
52927;BME280;40783;49.710;8.842;2023-04-08T07:50:01;99605.28;;;7.30;100.00
52927;BME280;40783;49.710;8.842;2023-04-08T07:52:29;99605.09;;;7.10;100.00
52927;BME280;40783;49.710;8.842;2023-04-08T07:54:55;99604.63;;;7.05;100.00
52927;BME280;40783;49.710;8.842;2023-04-08T07:57:22;99612.50;;;7.06;100.00
52927;BME280;40783;49.710;8.842;2023-04-08T07:59:48;99617.91;;;7.16;100.00
52927;BME280;40783;49.710;8.842;2023-04-08T08:02:13;99613.63;;;7.25;100.00
52927;BME280;40783;49.710;8.842;2023-04-08T08:04:38;99611.44;;;6.86;100.00
52927;BME280;40783;49.710;8.842;2023-04-08T08:07:06;99621.78;;;7.12;100.00
52927;BME280;40783;49.710;8.842;2023-04-08T08:09:33;99620.31;;;7.19;100.00
52927;BME280;40783;49.710;8.842;2023-04-08T08:11:59;99627.72;;;7.48;100.00
52927;BME280;40783;49.710;8.842;2023-04-08T08:14:27;99622.63;;;7.78;100.00
52927;BME280;40783;49.710;8.842;2023-04-08T08:16:53;99620.09;;;7.97;100.00
52927;BME280;40783;49.710;8.842;2023-04-08T08:19:19;99624.44;;;8.20;100.00
52927;BME280;40783;49.710;8.842;2023-04-08T08:21:44;99623.72;;;8.17;100.00
52927;BME280;40783;49.710;8.842;2023-04-08T08:24:10;99623.13;;;8.35;100.00
52927;BME280;40783;49.710;8.842;2023-04-08T08:26:37;99632.63;;;8.49;100.00
52927;BME280;40783;49.710;8.842;2023-04-08T08:29:05;99635.16;;;8.08;100.00
52927;BME280;40783;49.710;8.842;2023-04-08T08:31:33;99635.06;;;8.10;100.00
52927;BME280;40783;49.710;8.842;2023-04-08T08:33:58;99627.38;;;8.16;100.00
52927;BME280;40783;49.710;8.842;2023-04-08T08:36:23;99627.88;;;8.53;100.00
52927;BME280;40783;49.710;8.842;2023-04-08T08:38:49;99638.88;;;8.69;100.00
52927;BME280;40783;49.710;8.842;2023-04-08T08:41:15;99640.38;;;8.93;100.00
52927;BME280;40783;49.710;8.842;2023-04-08T08:43:41;99634.34;;;8.91;100.00
52927;BME280;40783;49.710;8.842;2023-04-08T08:46:09;99635.31;;;8.90;99.26
52927;BME280;40783;49.710;8.842;2023-04-08T08:48:37;99636.34;;;9.09;95.77
52927;BME280;40783;49.710;8.842;2023-04-08T08:51:11;99638.09;;;9.29;93.72
52927;BME280;40783;49.710;8.842;2023-04-08T08:53:39;99641.34;;;9.43;87.77
52927;BME280;40783;49.710;8.842;2023-04-08T08:56:11;99639.59;;;9.22;93.04
52927;BME280;40783;49.710;8.842;2023-04-08T08:58:37;99639.66;;;9.52;88.25
52927;BME280;40783;49.710;8.842;2023-04-08T09:06:37;99639.50;;;9.33;83.90
52927;BME280;40783;49.710;8.842;2023-04-08T09:09:03;99641.28;;;9.23;80.93
52927;BME280;40783;49.710;8.842;2023-04-08T09:11:30;99653.94;;;9.21;75.07
52927;BME280;40783;49.710;8.842;2023-04-08T09:13:58;99652.22;;;9.00;75.89
52927;BME280;40783;49.710;8.842;2023-04-08T09:16:23;99658.16;;;9.24;71.08
52927;BME280;40783;49.710;8.842;2023-04-08T09:18:51;99655.63;;;9.22;73.35
52927;BME280;40783;49.710;8.842;2023-04-08T09:21:17;99661.00;;;8.60;72.95
52927;BME280;40783;49.710;8.842;2023-04-08T09:26:09;99672.31;;;8.73;74.46
52927;BME280;40783;49.710;8.842;2023-04-08T09:28:34;99676.41;;;8.78;76.02
52927;BME280;40783;49.710;8.842;2023-04-08T09:31:00;99670.31;;;8.66;78.87
52927;BME280;40783;49.710;8.842;2023-04-08T09:33:30;99666.09;;;8.63;81.98
52927;BME280;40783;49.710;8.842;2023-04-08T09:35:58;99667.50;;;8.67;78.85
52927;BME280;40783;49.710;8.842;2023-04-08T09:38:23;99669.53;;;8.54;79.76
52927;BME280;40783;49.710;8.842;2023-04-08T09:40:49;99669.09;;;8.49;79.75
52927;BME280;40783;49.710;8.842;2023-04-08T09:43:19;99664.28;;;8.42;79.83
52927;BME280;40783;49.710;8.842;2023-04-08T09:45:51;99670.50;;;8.53;81.45
52927;BME280;40783;49.710;8.842;2023-04-08T09:48:17;99669.28;;;8.57;79.98
52927;BME280;40783;49.710;8.842;2023-04-08T09:50:51;99668.03;;;8.61;81.82
52927;BME280;40783;49.710;8.842;2023-04-08T09:55:56;99662.81;;;8.81;83.25
52927;BME280;40783;49.710;8.842;2023-04-08T09:58:32;99662.88;;;9.00;83.34
52927;BME280;40783;49.710;8.842;2023-04-08T10:00:58;99662.28;;;8.97;82.77
52927;BME280;40783;49.710;8.842;2023-04-08T10:03:39;99674.91;;;8.95;82.55
52927;BME280;40783;49.710;8.842;2023-04-08T10:06:05;99674.09;;;8.94;81.18
52927;BME280;40783;49.710;8.842;2023-04-08T10:08:32;99671.16;;;8.97;79.34
52927;BME280;40783;49.710;8.842;2023-04-08T10:10:58;99678.19;;;8.98;78.79
52927;BME280;40783;49.710;8.842;2023-04-08T10:13:24;99676.34;;;8.99;77.23
52927;BME280;40783;49.710;8.842;2023-04-08T10:18:41;99677.13;;;8.80;80.22
52927;BME280;40783;49.710;8.842;2023-04-08T10:21:39;99682.81;;;8.96;79.84
52927;BME280;40783;49.710;8.842;2023-04-08T10:24:12;99681.69;;;8.99;77.66
52927;BME280;40783;49.710;8.842;2023-04-08T10:26:44;99673.56;;;9.10;74.93
52927;BME280;40783;49.710;8.842;2023-04-08T10:31:43;99677.94;;;9.21;72.78
52927;BME280;40783;49.710;8.842;2023-04-08T10:34:18;99680.59;;;9.11;73.52
52927;BME280;40783;49.710;8.842;2023-04-08T10:36:46;99672.50;;;9.23;75.20
52927;BME280;40783;49.710;8.842;2023-04-08T10:39:15;99682.34;;;9.42;74.34
52927;BME280;40783;49.710;8.842;2023-04-08T10:41:41;99670.84;;;9.51;73.52
52927;BME280;40783;49.710;8.842;2023-04-08T10:44:20;99674.75;;;9.27;73.70
52927;BME280;40783;49.710;8.842;2023-04-08T10:46:49;99680.41;;;9.44;72.68
52927;BME280;40783;49.710;8.842;2023-04-08T10:49:16;99675.09;;;9.73;71.39
52927;BME280;40783;49.710;8.842;2023-04-08T10:51:42;99671.44;;;9.74;67.78
52927;BME280;40783;49.710;8.842;2023-04-08T10:54:15;99675.16;;;9.23;69.27
52927;BME280;40783;49.710;8.842;2023-04-08T10:56:50;99668.19;;;9.51;70.04
52927;BME280;40783;49.710;8.842;2023-04-08T10:59:25;99672.25;;;9.75;66.81
52927;BME280;40783;49.710;8.842;2023-04-08T11:01:51;99670.03;;;9.70;68.53
52927;BME280;40783;49.710;8.842;2023-04-08T11:04:17;99672.00;;;9.98;68.25
52927;BME280;40783;49.710;8.842;2023-04-08T11:06:44;99674.53;;;9.89;67.01
52927;BME280;40783;49.710;8.842;2023-04-08T11:09:11;99668.88;;;10.02;69.55
52927;BME280;40783;49.710;8.842;2023-04-08T11:11:42;99669.00;;;9.42;69.03
52927;BME280;40783;49.710;8.842;2023-04-08T11:14:08;99660.44;;;9.68;69.61
52927;BME280;40783;49.710;8.842;2023-04-08T11:16:34;99666.50;;;9.89;69.17
52927;BME280;40783;49.710;8.842;2023-04-08T11:19:02;99664.97;;;9.67;70.48
52927;BME280;40783;49.710;8.842;2023-04-08T11:21:38;99659.56;;;10.16;70.06
52927;BME280;40783;49.710;8.842;2023-04-08T11:24:11;99664.81;;;9.88;69.30
52927;BME280;40783;49.710;8.842;2023-04-08T11:26:37;99655.13;;;9.77;70.62
52927;BME280;40783;49.710;8.842;2023-04-08T11:29:03;99663.41;;;10.04;70.55
52927;BME280;40783;49.710;8.842;2023-04-08T11:31:31;99650.56;;;10.17;69.66
52927;BME280;40783;49.710;8.842;2023-04-08T11:33:59;99648.28;;;10.52;71.67
52927;BME280;40783;49.710;8.842;2023-04-08T11:36:24;99639.13;;;10.54;71.79
52927;BME280;40783;49.710;8.842;2023-04-08T11:38:53;99641.50;;;10.58;70.69
52927;BME280;40783;49.710;8.842;2023-04-08T11:41:18;99640.13;;;10.53;71.26
52927;BME280;40783;49.710;8.842;2023-04-08T11:43:54;99645.97;;;10.67;69.78
52927;BME280;40783;49.710;8.842;2023-04-08T11:46:20;99650.81;;;10.53;69.87
52927;BME280;40783;49.710;8.842;2023-04-08T11:49:03;99650.84;;;10.34;71.82
52927;BME280;40783;49.710;8.842;2023-04-08T11:51:29;99647.63;;;10.40;72.55
52927;BME280;40783;49.710;8.842;2023-04-08T11:53:54;99651.00;;;10.42;73.35
52927;BME280;40783;49.710;8.842;2023-04-08T11:56:21;99659.13;;;10.41;73.38
52927;BME280;40783;49.710;8.842;2023-04-08T11:58:53;99664.97;;;9.97;74.98
52927;BME280;40783;49.710;8.842;2023-04-08T12:01:20;99661.03;;;10.01;76.53
52927;BME280;40783;49.710;8.842;2023-04-08T12:04:00;99669.41;;;10.25;75.54
52927;BME280;40783;49.710;8.842;2023-04-08T12:06:27;99655.41;;;10.04;76.12
52927;BME280;40783;49.710;8.842;2023-04-08T12:08:55;99658.72;;;10.25;76.50
52927;BME280;40783;49.710;8.842;2023-04-08T12:11:23;99656.72;;;10.37;75.72
52927;BME280;40783;49.710;8.842;2023-04-08T12:13:49;99654.19;;;10.36;76.42
52927;BME280;40783;49.710;8.842;2023-04-08T12:16:15;99661.56;;;10.14;77.80
52927;BME280;40783;49.710;8.842;2023-04-08T12:18:43;99649.97;;;10.33;78.13
52927;BME280;40783;49.710;8.842;2023-04-08T12:21:10;99648.59;;;10.39;76.72
52927;BME280;40783;49.710;8.842;2023-04-08T12:23:40;99642.53;;;10.37;77.63
52927;BME280;40783;49.710;8.842;2023-04-08T12:26:08;99632.81;;;10.36;79.16
52927;BME280;40783;49.710;8.842;2023-04-08T12:28:33;99645.41;;;10.06;78.83
52927;BME280;40783;49.710;8.842;2023-04-08T12:31:00;99637.69;;;10.03;80.20
52927;BME280;40783;49.710;8.842;2023-04-08T12:33:28;99627.28;;;10.00;81.93
52927;BME280;40783;49.710;8.842;2023-04-08T12:35:58;99634.59;;;9.98;82.89
52927;BME280;40783;49.710;8.842;2023-04-08T12:38:24;99625.03;;;9.85;83.44
52927;BME280;40783;49.710;8.842;2023-04-08T12:40:51;99620.78;;;10.02;86.78
52927;BME280;40783;49.710;8.842;2023-04-08T12:43:16;99621.31;;;10.25;83.81
52927;BME280;40783;49.710;8.842;2023-04-08T12:45:41;99625.31;;;10.02;81.85
52927;BME280;40783;49.710;8.842;2023-04-08T12:48:07;99633.13;;;10.13;81.00
52927;BME280;40783;49.710;8.842;2023-04-08T12:50:35;99625.53;;;10.18;80.49
52927;BME280;40783;49.710;8.842;2023-04-08T12:53:04;99624.19;;;9.94;80.58
52927;BME280;40783;49.710;8.842;2023-04-08T12:55:29;99625.81;;;10.25;81.55
52927;BME280;40783;49.710;8.842;2023-04-08T12:57:54;99629.44;;;10.53;77.06
52927;BME280;40783;49.710;8.842;2023-04-08T13:00:25;99614.28;;;11.00;76.96
52927;BME280;40783;49.710;8.842;2023-04-08T13:02:53;99621.03;;;11.04;75.11
52927;BME280;40783;49.710;8.842;2023-04-08T13:05:18;99624.50;;;10.87;75.08
52927;BME280;40783;49.710;8.842;2023-04-08T13:07:44;99629.31;;;10.73;74.91
52927;BME280;40783;49.710;8.842;2023-04-08T13:10:10;99628.22;;;10.66;76.75
52927;BME280;40783;49.710;8.842;2023-04-08T13:12:35;99634.19;;;10.60;75.51
52927;BME280;40783;49.710;8.842;2023-04-08T13:15:03;99630.81;;;10.58;75.16
52927;BME280;40783;49.710;8.842;2023-04-08T13:17:29;99639.34;;;10.71;78.03
52927;BME280;40783;49.710;8.842;2023-04-08T13:19:56;99629.84;;;10.87;76.01
52927;BME280;40783;49.710;8.842;2023-04-08T13:22:26;99628.66;;;10.99;77.07